Time;durP1;ratioP1;P1;durP2;ratioP2;P2;SDS_P1;SDS_P2;PMS_P1;PMS_P2;Temp;Humidity;BMP_temperature;BMP_pressure;BME280_temperature;BME280_humidity;BME280_pressure;Samples;Min_cycle;Max_cycle;Signal;HPM_P1;HPM_P2
2021/08/29 00:00:42;;;;;;;;;;;;;;;25.04;43.67;102299.56;5123769;27;20002;-82
2021/08/29 00:03:09;;;;;;;;;;;;;;;24.96;44.03;102293.81;5140990;27;19988;-83
2021/08/29 00:05:34;;;;;;;;;;;;;;;24.86;44.16;102287.31;5122649;27;19915;-81
2021/08/29 00:07:59;;;;;;;;;;;;;;;24.75;44.46;102285.47;5140703;27;20432;-83
2021/08/29 00:10:25;;;;;;;;;;;;;;;24.65;44.70;102279.84;5122543;27;19915;-82
2021/08/29 00:12:50;;;;;;;;;;;;;;;24.77;44.40;102294.50;5141719;27;20381;-83
2021/08/29 00:15:15;;;;;;;;;;;;;;;24.19;45.80;102295.63;5123806;27;19916;-82
2021/08/29 00:17:40;;;;;;;;;;;;;;;24.39;45.17;102299.47;5121481;27;19919;-82
2021/08/29 00:20:07;;;;;;;;;;;;;;;24.20;45.56;102293.72;5122586;27;19954;-83
2021/08/29 00:22:32;;;;;;;;;;;;;;;24.58;45.22;102295.22;5121203;27;19923;-83
2021/08/29 00:24:58;;;;;;;;;;;;;;;24.74;44.72;102284.59;5121497;27;19919;-83
2021/08/29 00:27:23;;;;;;;;;;;;;;;24.27;45.25;102288.56;5120981;27;19915;-83
2021/08/29 00:29:48;;;;;;;;;;;;;;;24.08;45.87;102286.44;5139980;27;19926;-84
2021/08/29 00:32:14;;;;;;;;;;;;;;;24.16;45.95;102286.72;5121461;27;20288;-83
2021/08/29 00:34:39;;;;;;;;;;;;;;;24.32;44.97;102298.25;5122151;27;19999;-83
2021/08/29 00:37:05;;;;;;;;;;;;;;;24.14;45.70;102291.47;5122672;27;19904;-82
2021/08/29 00:39:30;;;;;;;;;;;;;;;24.24;45.63;102289.69;5139767;27;19920;-83
2021/08/29 00:41:55;;;;;;;;;;;;;;;24.02;46.26;102294.25;5138439;27;19936;-84
2021/08/29 00:44:21;;;;;;;;;;;;;;;23.85;46.30;102286.44;5120968;27;19916;-84
2021/08/29 00:46:46;;;;;;;;;;;;;;;23.94;46.36;102287.59;5120655;27;19916;-83
2021/08/29 00:49:18;;;;;;;;;;;;;;;23.67;46.24;102291.53;5120756;27;19916;-83
2021/08/29 00:51:43;;;;;;;;;;;;;;;24.15;45.34;102285.81;5139380;27;20334;-83
2021/08/29 00:54:08;;;;;;;;;;;;;;;24.14;45.14;102284.06;5122069;27;19915;-83
2021/08/29 00:56:35;;;;;;;;;;;;;;;24.14;45.32;102280.41;5140398;27;19916;-84
2021/08/29 00:59:00;;;;;;;;;;;;;;;23.86;45.69;102283.56;5121932;27;19916;-82
2021/08/29 01:01:35;;;;;;;;;;;;;;;24.00;45.17;102279.66;5120487;27;19923;-83
2021/08/29 01:04:03;;;;;;;;;;;;;;;23.86;45.35;102285.44;5120423;27;19916;-84
2021/08/29 01:06:31;;;;;;;;;;;;;;;23.47;46.25;102288.50;5121199;27;19920;-84
2021/08/29 01:08:59;;;;;;;;;;;;;;;23.79;45.28;102286.91;5121559;27;19923;-83
2021/08/29 01:11:27;;;;;;;;;;;;;;;23.67;45.50;102288.78;5121701;27;19937;-83
2021/08/29 01:13:58;;;;;;;;;;;;;;;24.12;44.50;102282.44;5121454;27;19915;-83
2021/08/29 01:16:24;;;;;;;;;;;;;;;23.85;44.66;102278.16;5122242;27;19916;-83
2021/08/29 01:18:51;;;;;;;;;;;;;;;23.67;45.10;102284.16;5121015;27;19954;-83
2021/08/29 01:21:20;;;;;;;;;;;;;;;24.11;43.86;102272.38;5121724;27;19923;-83
2021/08/29 01:23:47;;;;;;;;;;;;;;;24.41;43.18;102272.59;5139999;27;20026;-82
2021/08/29 01:26:20;;;;;;;;;;;;;;;24.11;43.76;102278.78;5140178;27;19916;-83
2021/08/29 01:28:46;;;;;;;;;;;;;;;24.62;42.43;102269.03;5140865;27;20399;-82
2021/08/29 01:31:11;;;;;;;;;;;;;;;24.19;43.38;102270.72;5122968;27;19923;-84
2021/08/29 01:33:37;;;;;;;;;;;;;;;24.12;43.57;102274.13;5122503;27;19916;-84
2021/08/29 01:36:02;;;;;;;;;;;;;;;24.06;43.33;102272.75;5140891;27;19915;-84
2021/08/29 01:38:27;;;;;;;;;;;;;;;23.80;44.11;102274.88;5120504;27;19920;-83
2021/08/29 01:40:53;;;;;;;;;;;;;;;23.94;43.70;102273.75;5120561;27;19919;-81
2021/08/29 01:43:18;;;;;;;;;;;;;;;24.08;43.45;102279.06;5119951;27;20307;-83
2021/08/29 01:45:44;;;;;;;;;;;;;;;24.20;43.19;102275.25;5138975;27;19916;-83
2021/08/29 01:48:09;;;;;;;;;;;;;;;23.68;44.40;102282.25;5120306;27;19938;-83
2021/08/29 01:50:34;;;;;;;;;;;;;;;23.52;44.30;102277.97;5120620;27;20322;-84
2021/08/29 01:53:00;;;;;;;;;;;;;;;23.65;44.30;102280.63;5120457;27;19934;-82
2021/08/29 01:55:25;;;;;;;;;;;;;;;24.05;43.01;102277.41;5121928;27;20426;-83
2021/08/29 01:57:50;;;;;;;;;;;;;;;24.07;43.21;102277.28;5122669;27;19915;-83
2021/08/29 02:00:16;;;;;;;;;;;;;;;24.39;42.82;102279.25;5139392;27;19945;-84
2021/08/29 02:02:41;;;;;;;;;;;;;;;24.02;43.65;102276.75;5122143;27;19930;-84
2021/08/29 02:05:07;;;;;;;;;;;;;;;24.11;43.36;102273.25;5140028;27;19916;-83
2021/08/29 02:07:33;;;;;;;;;;;;;;;24.10;42.54;102277.03;5120522;28;19945;-84
2021/08/29 02:10:05;;;;;;;;;;;;;;;24.33;42.19;102277.88;5120644;28;19964;-83
2021/08/29 02:12:31;;;;;;;;;;;;;;;23.97;43.55;102288.19;5120320;27;20363;-83
2021/08/29 02:15:08;;;;;;;;;;;;;;;23.87;43.58;102281.69;5121166;28;19988;-83
2021/08/29 02:17:34;;;;;;;;;;;;;;;24.21;42.77;102278.91;5121120;28;19915;-83
2021/08/29 02:20:03;;;;;;;;;;;;;;;24.31;42.83;102282.66;5120800;27;20006;-83
2021/08/29 02:22:28;;;;;;;;;;;;;;;24.32;42.42;102281.66;5124193;27;19919;-83
2021/08/29 02:24:54;;;;;;;;;;;;;;;24.37;42.21;102278.50;5125047;27;20292;-82
2021/08/29 02:27:19;;;;;;;;;;;;;;;24.52;41.93;102281.88;5125924;27;19931;-83
2021/08/29 02:29:45;;;;;;;;;;;;;;;24.88;41.34;102276.97;5124839;27;19927;-83
2021/08/29 02:32:12;;;;;;;;;;;;;;;24.40;41.89;102283.78;5125190;27;19916;-83
2021/08/29 02:34:39;;;;;;;;;;;;;;;24.79;41.75;102284.22;5125618;27;19907;-84
2021/08/29 02:37:08;;;;;;;;;;;;;;;24.23;42.46;102279.63;5125231;27;19915;-84
2021/08/29 02:39:35;;;;;;;;;;;;;;;24.63;41.54;102281.84;5143241;27;19920;-82
2021/08/29 02:42:01;;;;;;;;;;;;;;;24.59;42.05;102272.94;5142564;27;20002;-83
2021/08/29 02:44:26;;;;;;;;;;;;;;;24.88;41.30;102282.53;5125762;27;19951;-83
2021/08/29 02:46:51;;;;;;;;;;;;;;;24.83;41.50;102279.28;5144928;27;19923;-83
2021/08/29 02:49:21;;;;;;;;;;;;;;;24.42;42.54;102282.63;5126371;27;19912;-83
2021/08/29 02:51:47;;;;;;;;;;;;;;;24.71;41.63;102276.53;5143465;27;20041;-84
2021/08/29 02:54:13;;;;;;;;;;;;;;;24.50;41.99;102278.34;5124518;27;20010;-83
2021/08/29 02:56:39;;;;;;;;;;;;;;;24.71;41.77;102273.75;5124274;27;19950;-83
2021/08/29 02:59:04;;;;;;;;;;;;;;;24.28;42.38;102268.19;5124959;27;19915;-84
2021/08/29 03:01:29;;;;;;;;;;;;;;;24.37;42.17;102272.97;5123899;27;19991;-83
2021/08/29 03:03:54;;;;;;;;;;;;;;;24.78;41.65;102268.59;5125272;27;19922;-84
2021/08/29 03:06:20;;;;;;;;;;;;;;;24.81;41.02;102261.94;5126195;27;19923;-83
2021/08/29 03:08:45;;;;;;;;;;;;;;;24.59;41.72;102258.22;5125824;27;19922;-84
2021/08/29 03:11:10;;;;;;;;;;;;;;;24.77;41.53;102259.44;5124590;27;19916;-83
2021/08/29 03:13:36;;;;;;;;;;;;;;;24.02;43.33;102262.94;5143783;27;19916;-84
2021/08/29 03:16:01;;;;;;;;;;;;;;;24.16;43.08;102264.59;5125156;27;20022;-84
2021/08/29 03:18:28;;;;;;;;;;;;;;;24.54;42.23;102257.72;5124516;27;20321;-84
2021/08/29 03:20:53;;;;;;;;;;;;;;;24.06;42.98;102261.69;5126025;27;19979;-83
2021/08/29 03:23:19;;;;;;;;;;;;;;;24.18;43.02;102262.56;5125615;27;19915;-83
2021/08/29 03:25:44;;;;;;;;;;;;;;;24.09;43.32;102263.31;5126017;27;19916;-83
2021/08/29 03:28:09;;;;;;;;;;;;;;;24.63;42.22;102258.84;5126704;27;19916;-83
2021/08/29 03:30:36;;;;;;;;;;;;;;;24.45;42.14;102255.72;5127639;27;19919;-81
2021/08/29 03:33:01;;;;;;;;;;;;;;;24.64;42.12;102257.81;5126820;27;19915;-83
2021/08/29 03:35:27;;;;;;;;;;;;;;;24.70;42.02;102249.88;5125577;27;19921;-83
2021/08/29 03:37:52;;;;;;;;;;;;;;;24.11;43.43;102253.00;5144519;27;20005;-84
2021/08/29 03:40:18;;;;;;;;;;;;;;;24.64;42.09;102253.19;5144299;27;20024;-85
2021/08/29 03:42:44;;;;;;;;;;;;;;;24.86;41.94;102249.44;5143304;27;19937;-83
2021/08/29 03:45:09;;;;;;;;;;;;;;;24.88;41.63;102241.00;5125355;27;19957;-83
2021/08/29 03:47:35;;;;;;;;;;;;;;;24.62;41.95;102244.13;5124838;27;19915;-83
2021/08/29 03:50:01;;;;;;;;;;;;;;;24.44;42.65;102246.53;5144096;27;19922;-83
2021/08/29 03:52:27;;;;;;;;;;;;;;;24.82;42.01;102241.53;5125890;27;20450;-84
2021/08/29 03:54:52;;;;;;;;;;;;;;;24.40;42.77;102237.63;5142211;27;19916;-84
2021/08/29 03:57:18;;;;;;;;;;;;;;;24.48;42.73;102236.09;5125239;27;19919;-84
2021/08/29 03:59:43;;;;;;;;;;;;;;;24.47;42.52;102237.09;5125173;27;20345;-83
2021/08/29 04:02:09;;;;;;;;;;;;;;;24.83;41.93;102237.75;5123750;27;20299;-85
2021/08/29 04:04:34;;;;;;;;;;;;;;;24.95;41.81;102231.16;5142456;27;19915;-85
2021/08/29 04:07:04;;;;;;;;;;;;;;;24.64;42.38;102235.69;5124425;27;19979;-82
2021/08/29 04:09:31;;;;;;;;;;;;;;;24.64;42.48;102231.06;5124717;27;20439;-83
2021/08/29 04:11:57;;;;;;;;;;;;;;;24.33;43.27;102225.31;5123258;27;20353;-83
2021/08/29 04:14:22;;;;;;;;;;;;;;;24.85;42.36;102224.66;5123280;27;19915;-84
2021/08/29 04:16:49;;;;;;;;;;;;;;;25.03;41.98;102227.72;5143408;27;20500;-84
2021/08/29 04:19:15;;;;;;;;;;;;;;;24.68;42.90;102221.44;5143121;27;19973;-83
2021/08/29 04:21:41;;;;;;;;;;;;;;;24.45;43.04;102230.84;5143588;27;19926;-84
2021/08/29 04:24:07;;;;;;;;;;;;;;;24.77;42.74;102222.56;5143247;27;19915;-83
2021/08/29 04:26:32;;;;;;;;;;;;;;;24.64;43.03;102221.84;5141939;27;19915;-84
2021/08/29 04:28:57;;;;;;;;;;;;;;;25.17;41.95;102220.94;5124475;27;19967;-84
2021/08/29 04:31:26;;;;;;;;;;;;;;;24.81;42.74;102217.66;5123661;27;19920;-84
2021/08/29 04:33:52;;;;;;;;;;;;;;;24.92;42.49;102218.44;5123296;27;20283;-83
2021/08/29 04:36:17;;;;;;;;;;;;;;;25.00;42.24;102219.66;5123012;27;19983;-84
2021/08/29 04:38:42;;;;;;;;;;;;;;;25.04;42.51;102215.63;5122526;27;19940;-83
2021/08/29 04:41:08;;;;;;;;;;;;;;;25.08;42.47;102218.00;5123132;27;19923;-84
2021/08/29 04:43:34;;;;;;;;;;;;;;;24.56;43.21;102223.38;5123497;27;19915;-84
2021/08/29 04:45:59;;;;;;;;;;;;;;;24.53;43.51;102231.03;5140709;27;19923;-84
2021/08/29 04:48:24;;;;;;;;;;;;;;;24.55;43.87;102227.16;5122622;27;19992;-83
2021/08/29 04:50:49;;;;;;;;;;;;;;;24.83;42.97;102230.31;5123039;27;19983;-83
2021/08/29 04:53:15;;;;;;;;;;;;;;;24.56;43.69;102220.63;5122789;27;20372;-83
2021/08/29 04:55:40;;;;;;;;;;;;;;;24.09;44.61;102230.16;5141548;27;19915;-84
2021/08/29 04:58:05;;;;;;;;;;;;;;;24.32;44.22;102230.97;5121678;27;19922;-84
2021/08/29 05:00:31;;;;;;;;;;;;;;;24.33;44.24;102236.38;5121022;27;19922;-85
2021/08/29 05:02:56;;;;;;;;;;;;;;;24.44;43.76;102226.28;5120367;27;19924;-84
2021/08/29 05:05:21;;;;;;;;;;;;;;;24.45;43.97;102230.84;5120050;27;19915;-81
2021/08/29 05:07:46;;;;;;;;;;;;;;;24.42;43.23;102219.00;5122219;27;19915;-84
2021/08/29 05:10:12;;;;;;;;;;;;;;;23.84;44.99;102229.41;5122906;27;19962;-84
2021/08/29 05:12:37;;;;;;;;;;;;;;;24.11;44.41;102222.59;5122607;27;20376;-84
2021/08/29 05:15:03;;;;;;;;;;;;;;;23.79;45.02;102224.22;5121291;27;19915;-83
2021/08/29 05:17:28;;;;;;;;;;;;;;;24.13;43.81;102220.59;5120801;27;20026;-84
2021/08/29 05:19:53;;;;;;;;;;;;;;;24.07;43.98;102224.75;5120140;27;20423;-83
2021/08/29 05:22:18;;;;;;;;;;;;;;;24.62;42.82;102223.88;5121317;27;19946;-82
2021/08/29 05:24:44;;;;;;;;;;;;;;;24.61;42.95;102225.78;5122136;27;19915;-84
2021/08/29 05:27:09;;;;;;;;;;;;;;;24.98;42.46;102232.78;5139925;27;19910;-84
2021/08/29 05:29:34;;;;;;;;;;;;;;;24.13;43.97;102234.44;5121070;27;19926;-84
2021/08/29 05:31:59;;;;;;;;;;;;;;;24.44;43.75;102229.06;5121730;27;20295;-84
2021/08/29 05:34:25;;;;;;;;;;;;;;;24.61;43.11;102227.66;5140116;27;19915;-84
2021/08/29 05:36:50;;;;;;;;;;;;;;;23.49;45.68;102224.84;5121708;27;20292;-84
2021/08/29 05:39:15;;;;;;;;;;;;;;;24.08;45.21;102229.28;5139926;27;19919;-84
2021/08/29 05:41:41;;;;;;;;;;;;;;;24.27;44.58;102233.25;5121330;27;19942;-82
2021/08/29 05:44:06;;;;;;;;;;;;;;;23.70;45.94;102234.16;5120882;27;19915;-83
2021/08/29 05:46:31;;;;;;;;;;;;;;;24.29;44.30;102243.19;5121159;27;19923;-83
2021/08/29 05:48:56;;;;;;;;;;;;;;;23.80;45.63;102241.69;5121622;27;19918;-83
2021/08/29 05:51:22;;;;;;;;;;;;;;;24.17;44.99;102242.34;5122557;27;19903;-83
2021/08/29 05:53:47;;;;;;;;;;;;;;;23.88;45.57;102239.19;5122494;27;20321;-83
2021/08/29 05:56:12;;;;;;;;;;;;;;;23.99;45.68;102236.44;5118844;27;19984;-83
2021/08/29 05:58:37;;;;;;;;;;;;;;;24.59;44.02;102236.97;5139553;27;20368;-84
2021/08/29 06:01:03;;;;;;;;;;;;;;;24.16;45.00;102237.81;5122112;27;19987;-83
2021/08/29 06:03:28;;;;;;;;;;;;;;;24.54;43.71;102235.56;5121749;28;19920;-82
2021/08/29 06:05:54;;;;;;;;;;;;;;;24.41;43.77;102239.38;5120960;27;19978;-82
2021/08/29 06:08:20;;;;;;;;;;;;;;;24.54;43.26;102232.81;5120423;28;19911;-82
2021/08/29 06:10:45;;;;;;;;;;;;;;;24.86;42.64;102240.25;5119328;28;19996;-83
2021/08/29 06:13:10;;;;;;;;;;;;;;;24.88;42.93;102229.91;5139058;27;19919;-84
2021/08/29 06:15:36;;;;;;;;;;;;;;;24.61;43.12;102231.31;5120508;28;20006;-83
2021/08/29 06:18:01;;;;;;;;;;;;;;;24.71;43.18;102236.91;5120817;28;20304;-81
2021/08/29 06:20:28;;;;;;;;;;;;;;;24.32;44.08;102220.81;5120641;28;20376;-85
2021/08/29 06:22:53;;;;;;;;;;;;;;;24.53;43.69;102226.41;5120988;28;19922;-82
2021/08/29 06:25:18;;;;;;;;;;;;;;;24.44;43.55;102226.28;5139272;28;19955;-83
2021/08/29 06:27:43;;;;;;;;;;;;;;;23.52;45.63;102225.50;5120695;28;19983;-83
2021/08/29 06:30:09;;;;;;;;;;;;;;;24.25;44.18;102230.63;5120049;28;19927;-83
2021/08/29 06:32:34;;;;;;;;;;;;;;;25.15;42.24;102223.84;5138534;28;19919;-83
2021/08/29 06:34:59;;;;;;;;;;;;;;;24.60;43.24;102224.00;5120108;28;19937;-84
2021/08/29 06:37:25;;;;;;;;;;;;;;;23.92;45.46;102229.66;5121136;28;19915;-84
2021/08/29 06:39:50;;;;;;;;;;;;;;;24.39;43.62;102221.16;5120976;28;19919;-83
2021/08/29 06:42:15;;;;;;;;;;;;;;;24.44;43.72;102224.41;5121420;28;19941;-84
2021/08/29 06:44:40;;;;;;;;;;;;;;;24.74;43.45;102226.47;5122387;28;19919;-84
2021/08/29 06:47:06;;;;;;;;;;;;;;;24.64;43.38;102219.97;5141284;28;19924;-83
2021/08/29 06:49:31;;;;;;;;;;;;;;;24.87;43.58;102230.97;5122389;28;19968;-84
2021/08/29 06:51:56;;;;;;;;;;;;;;;24.61;43.94;102220.25;5140802;28;19968;-84
2021/08/29 06:54:22;;;;;;;;;;;;;;;24.16;44.75;102231.41;5122261;28;19915;-84
2021/08/29 06:56:47;;;;;;;;;;;;;;;24.83;43.35;102224.78;5122329;28;19922;-83
2021/08/29 06:59:12;;;;;;;;;;;;;;;25.12;43.01;102224.13;5122913;28;19915;-85
2021/08/29 07:01:37;;;;;;;;;;;;;;;24.91;43.51;102222.25;5122121;28;19916;-84
2021/08/29 07:04:03;;;;;;;;;;;;;;;24.45;44.13;102222.53;5118188;28;20372;-84
2021/08/29 07:06:28;;;;;;;;;;;;;;;24.64;43.98;102213.53;5119966;27;20276;-85
2021/08/29 07:08:53;;;;;;;;;;;;;;;25.03;42.92;102222.16;5123089;27;19923;-84
2021/08/29 07:11:18;;;;;;;;;;;;;;;24.63;43.84;102218.22;5122415;27;19912;-84
2021/08/29 07:13:43;;;;;;;;;;;;;;;25.16;42.65;102213.69;5140880;27;19919;-84
2021/08/29 07:16:09;;;;;;;;;;;;;;;25.29;41.94;102204.16;5121594;27;19916;-84
2021/08/29 07:18:34;;;;;;;;;;;;;;;24.88;43.05;102221.63;5121973;27;19930;-84
2021/08/29 07:20:59;;;;;;;;;;;;;;;25.53;41.83;102210.41;5123253;27;19915;-84
2021/08/29 07:23:27;;;;;;;;;;;;;;;25.09;42.91;102218.84;5122724;27;19915;-83
2021/08/29 07:25:52;;;;;;;;;;;;;;;25.64;41.52;102208.44;5141420;27;19916;-83
2021/08/29 07:28:17;;;;;;;;;;;;;;;25.57;41.64;102211.91;5122860;27;20387;-82
2021/08/29 07:30:42;;;;;;;;;;;;;;;25.41;41.99;102215.16;5122478;27;19922;-83
2021/08/29 07:33:08;;;;;;;;;;;;;;;25.59;41.67;102215.41;5123482;27;19926;-83
2021/08/29 07:35:33;;;;;;;;;;;;;;;24.95;43.91;102209.00;5121945;27;19922;-83
2021/08/29 07:37:58;;;;;;;;;;;;;;;25.00;43.46;102208.59;5139545;27;19989;-82
2021/08/29 07:40:23;;;;;;;;;;;;;;;25.10;42.88;102212.31;5119066;27;19920;-83
2021/08/29 07:42:49;;;;;;;;;;;;;;;26.05;41.21;102205.69;5140422;27;19915;-83
2021/08/29 07:45:14;;;;;;;;;;;;;;;25.89;40.96;102208.09;5122613;27;19915;-83
2021/08/29 07:47:39;;;;;;;;;;;;;;;25.75;41.04;102206.59;5122756;27;19981;-84
2021/08/29 07:50:05;;;;;;;;;;;;;;;25.43;41.89;102205.69;5123341;27;19960;-84
2021/08/29 07:52:30;;;;;;;;;;;;;;;25.44;42.14;102209.38;5142091;27;19915;-84
2021/08/29 07:54:56;;;;;;;;;;;;;;;24.98;43.21;102208.72;5122892;27;19915;-83
2021/08/29 07:57:21;;;;;;;;;;;;;;;25.58;42.08;102195.13;5140226;27;19915;-84
2021/08/29 07:59:46;;;;;;;;;;;;;;;25.22;43.32;102200.16;5141796;27;19915;-83
2021/08/29 08:02:13;;;;;;;;;;;;;;;25.76;41.84;102200.03;5140126;27;19947;-83
2021/08/29 08:04:38;;;;;;;;;;;;;;;25.89;41.77;102195.13;5120798;27;20088;-85
2021/08/29 08:07:03;;;;;;;;;;;;;;;25.42;42.46;102200.28;5121252;27;19984;-86
2021/08/29 08:09:28;;;;;;;;;;;;;;;25.44;42.29;102199.16;5121227;27;19972;-83
2021/08/29 08:11:54;;;;;;;;;;;;;;;26.28;40.83;102200.78;5119906;27;19920;-82
2021/08/29 08:14:19;;;;;;;;;;;;;;;25.33;42.67;102203.91;5120187;27;20276;-85
2021/08/29 08:16:44;;;;;;;;;;;;;;;25.88;41.56;102204.44;5121706;27;19920;-85
2021/08/29 08:19:10;;;;;;;;;;;;;;;26.00;41.20;102199.72;5120560;27;19998;-85
2021/08/29 08:21:35;;;;;;;;;;;;;;;25.36;42.63;102201.72;5140443;27;20018;-84
2021/08/29 08:24:00;;;;;;;;;;;;;;;25.28;42.94;102207.03;5121351;27;19923;-83
2021/08/29 08:26:25;;;;;;;;;;;;;;;25.54;42.50;102201.97;5122049;27;19959;-85
2021/08/29 08:28:51;;;;;;;;;;;;;;;25.47;42.45;102201.66;5140319;27;19938;-87
2021/08/29 08:31:16;;;;;;;;;;;;;;;25.34;42.95;102203.75;5140087;27;19955;-86
2021/08/29 08:33:41;;;;;;;;;;;;;;;25.32;42.75;102204.91;5141336;27;19943;-87
2021/08/29 08:36:08;;;;;;;;;;;;;;;25.85;41.58;102210.28;5122637;27;19915;-83
2021/08/29 08:38:34;;;;;;;;;;;;;;;26.15;41.70;102205.72;5121514;27;19915;-84
2021/08/29 08:40:59;;;;;;;;;;;;;;;25.72;43.12;102210.50;5122461;27;19926;-85
2021/08/29 08:43:24;;;;;;;;;;;;;;;25.57;42.54;102206.34;5123230;27;19976;-88
2021/08/29 08:45:49;;;;;;;;;;;;;;;25.40;42.72;102196.78;5141894;27;20368;-87
2021/08/29 08:48:15;;;;;;;;;;;;;;;25.32;42.61;102197.50;5122156;27;20376;-83
2021/08/29 08:50:43;;;;;;;;;;;;;;;25.61;42.35;102203.16;5121442;27;19916;-84
2021/08/29 08:53:09;;;;;;;;;;;;;;;25.47;42.51;102196.09;5121819;27;19966;-84
2021/08/29 08:55:36;;;;;;;;;;;;;;;26.29;40.91;102215.53;5121972;27;19924;-83
2021/08/29 08:58:02;;;;;;;;;;;;;;;25.86;42.06;102212.00;5121375;27;19923;-84
2021/08/29 09:00:27;;;;;;;;;;;;;;;25.32;42.81;102205.78;5121756;27;19915;-84
2021/08/29 09:02:53;;;;;;;;;;;;;;;25.33;43.98;102210.31;5139950;27;19927;-85
2021/08/29 09:05:20;;;;;;;;;;;;;;;25.53;43.35;102199.31;5121875;27;19919;-83
2021/08/29 09:07:45;;;;;;;;;;;;;;;25.37;43.95;102200.72;5138563;27;20014;-84
2021/08/29 09:10:11;;;;;;;;;;;;;;;25.02;43.94;102203.81;5121292;27;20341;-85
2021/08/29 09:12:53;;;;;;;;;;;;;;;25.41;43.08;102202.19;5120763;27;20014;-83
2021/08/29 09:15:21;;;;;;;;;;;;;;;25.25;43.12;102208.19;5120921;27;20438;-83
2021/08/29 09:17:46;;;;;;;;;;;;;;;25.70;42.07;102207.00;5138944;27;20384;-83
2021/08/29 09:20:13;;;;;;;;;;;;;;;25.42;42.42;102208.59;5120304;27;19915;-83
2021/08/29 09:22:40;;;;;;;;;;;;;;;25.92;41.93;102211.47;5120754;27;19977;-85
2021/08/29 09:25:10;;;;;;;;;;;;;;;25.26;42.42;102212.72;5122446;27;19927;-84
2021/08/29 09:27:38;;;;;;;;;;;;;;;24.42;44.11;102210.69;5121278;27;19911;-84
2021/08/29 09:30:04;;;;;;;;;;;;;;;25.23;42.58;102206.59;5120518;27;19915;-87
2021/08/29 09:32:29;;;;;;;;;;;;;;;24.73;42.97;102205.34;5138565;27;19922;-84
2021/08/29 09:34:58;;;;;;;;;;;;;;;25.29;42.53;102203.28;5123058;27;20395;-85
2021/08/29 09:37:24;;;;;;;;;;;;;;;25.43;42.66;102200.16;5124914;27;20329;-87
2021/08/29 09:39:49;;;;;;;;;;;;;;;26.08;41.45;102205.41;5124179;27;19919;-87
2021/08/29 09:42:14;;;;;;;;;;;;;;;24.78;43.68;102204.94;5139823;27;19923;-87
2021/08/29 09:44:39;;;;;;;;;;;;;;;24.24;44.07;102206.72;5123596;27;19927;-89
2021/08/29 09:47:05;;;;;;;;;;;;;;;24.91;42.87;102204.72;5123586;27;19968;-83
2021/08/29 09:49:30;;;;;;;;;;;;;;;24.66;43.31;102204.13;5123197;27;19916;-91
2021/08/29 09:51:57;;;;;;;;;;;;;;;24.81;42.50;102203.81;5121877;28;19912;-82
2021/08/29 09:54:30;;;;;;;;;;;;;;;25.05;42.35;102209.09;5119585;27;19915;-83
2021/08/29 09:56:55;;;;;;;;;;;;;;;24.52;43.25;102204.41;5138548;27;19916;-85
2021/08/29 09:59:44;;;;;;;;;;;;;;;24.59;43.32;102197.34;5138961;27;19915;-82
2021/08/29 10:02:10;;;;;;;;;;;;;;;25.78;40.65;102204.41;5128669;27;19919;-84
2021/08/29 10:04:35;;;;;;;;;;;;;;;24.45;43.34;102205.94;5135573;27;19915;-83
2021/08/29 10:07:17;;;;;;;;;;;;;;;24.25;44.01;102197.44;5119602;27;19925;-82
2021/08/29 10:09:43;;;;;;;;;;;;;;;25.19;42.37;102203.19;5118834;27;19972;-86
2021/08/29 10:12:09;;;;;;;;;;;;;;;24.74;43.55;102201.56;5120694;28;19911;-84
2021/08/29 10:14:35;;;;;;;;;;;;;;;24.96;42.92;102191.38;5121504;27;20036;-83
2021/08/29 10:17:01;;;;;;;;;;;;;;;24.82;43.25;102181.53;5137574;27;19920;-81
2021/08/29 10:19:27;;;;;;;;;;;;;;;25.01;42.84;102186.31;5119461;28;19926;-83
2021/08/29 10:21:53;;;;;;;;;;;;;;;24.91;43.53;102177.94;5119853;28;19937;-84
2021/08/29 10:24:19;;;;;;;;;;;;;;;25.17;42.75;102180.31;5119068;28;19919;-82
2021/08/29 10:26:46;;;;;;;;;;;;;;;24.94;42.80;102176.78;5119053;28;19916;-85
2021/08/29 10:29:16;;;;;;;;;;;;;;;26.04;40.74;102176.19;5147939;27;20380;-86
2021/08/29 10:31:45;;;;;;;;;;;;;;;25.69;41.27;102177.53;5142264;27;20419;-85
2021/08/29 10:34:11;;;;;;;;;;;;;;;25.16;42.38;102180.44;5159241;27;19937;-83
2021/08/29 10:36:37;;;;;;;;;;;;;;;24.81;43.23;102177.00;5158332;27;20366;-80
2021/08/29 10:39:02;;;;;;;;;;;;;;;24.10;45.31;102171.09;5157203;27;20356;-83
2021/08/29 10:41:27;;;;;;;;;;;;;;;25.08;43.28;102178.34;5138774;27;20287;-83
2021/08/29 10:43:53;;;;;;;;;;;;;;;24.79;43.67;102173.50;5142044;27;19919;-82
2021/08/29 10:46:19;;;;;;;;;;;;;;;24.51;45.05;102169.44;5142866;27;19986;-82
2021/08/29 10:48:46;;;;;;;;;;;;;;;24.55;44.46;102176.47;5143780;27;19923;-83
2021/08/29 10:51:13;;;;;;;;;;;;;;;24.44;45.05;102171.84;5143840;27;19938;-85
2021/08/29 10:53:42;;;;;;;;;;;;;;;23.73;46.03;102172.22;5143908;27;20585;-83
2021/08/29 10:56:17;;;;;;;;;;;;;;;24.60;43.71;102168.69;5143198;27;19922;-83
2021/08/29 10:58:46;;;;;;;;;;;;;;;24.07;45.58;102169.47;5136693;27;19924;-82
2021/08/29 11:01:30;;;;;;;;;;;;;;;24.38;45.52;102172.38;5141795;27;19922;-82
2021/08/29 11:03:55;;;;;;;;;;;;;;;24.67;45.88;102175.44;5160024;27;19915;-83
2021/08/29 11:06:39;;;;;;;;;;;;;;;24.50;47.30;102165.78;5143032;27;19960;-83
2021/08/29 11:09:23;;;;;;;;;;;;;;;24.24;49.38;102179.09;5161911;27;20287;-86
2021/08/29 11:11:48;;;;;;;;;;;;;;;24.82;47.98;102167.69;5142029;27;19915;-82
2021/08/29 11:14:32;;;;;;;;;;;;;;;23.87;49.75;102174.78;5161014;27;19918;-83
2021/08/29 11:17:17;;;;;;;;;;;;;;;23.00;52.62;102167.00;5142017;27;19923;-84
2021/08/29 11:19:43;;;;;;;;;;;;;;;24.20;48.95;102166.50;5141343;27;19937;-85
2021/08/29 11:22:08;;;;;;;;;;;;;;;23.60;51.86;102175.13;5142429;27;20478;-81
2021/08/29 11:24:52;;;;;;;;;;;;;;;23.77;49.60;102162.69;5161333;27;19962;-84
2021/08/29 11:27:36;;;;;;;;;;;;;;;24.16;48.64;102170.56;5159967;27;19921;-83
2021/08/29 11:30:04;;;;;;;;;;;;;;;24.93;46.58;102164.84;5141816;27;19915;-81
2021/08/29 11:32:31;;;;;;;;;;;;;;;25.60;44.78;102162.59;5141679;27;19960;-83
2021/08/29 11:35:07;;;;;;;;;;;;;;;25.45;44.61;102158.47;5160562;27;19915;-83
2021/08/29 11:37:32;;;;;;;;;;;;;;;23.57;48.82;102163.44;5140693;27;19919;-81
2021/08/29 11:40:02;;;;;;;;;;;;;;;23.87;48.30;102154.56;5121063;27;19919;-81
2021/08/29 11:42:28;;;;;;;;;;;;;;;24.72;46.65;102152.91;5140269;27;19915;-82
2021/08/29 11:44:54;;;;;;;;;;;;;;;23.90;47.98;102148.78;5139088;27;19922;-82
2021/08/29 11:47:22;;;;;;;;;;;;;;;24.17;47.86;102153.84;5121011;27;19928;-83
2021/08/29 11:49:56;;;;;;;;;;;;;;;23.98;48.97;102148.13;5138857;27;19926;-82
2021/08/29 11:52:28;;;;;;;;;;;;;;;24.15;47.97;102146.69;5140717;27;19938;-83
2021/08/29 11:55:13;;;;;;;;;;;;;;;24.76;46.79;102148.84;5139482;27;19915;-84
2021/08/29 11:57:49;;;;;;;;;;;;;;;24.52;47.61;102151.84;5153977;27;20370;-84
2021/08/29 12:00:15;;;;;;;;;;;;;;;24.32;48.55;102142.47;5160918;27;20448;-83
2021/08/29 12:02:43;;;;;;;;;;;;;;;24.46;48.17;102146.81;5160221;27;19919;-83
2021/08/29 12:05:10;;;;;;;;;;;;;;;24.81;47.65;102148.44;5143681;27;19927;-85
2021/08/29 12:07:36;;;;;;;;;;;;;;;24.44;49.63;102154.38;5143168;27;19960;-84
2021/08/29 12:10:04;;;;;;;;;;;;;;;24.60;49.17;102143.78;5142032;27;19919;-84
2021/08/29 12:12:29;;;;;;;;;;;;;;;24.40;50.06;102143.56;5161282;27;19919;-83
2021/08/29 12:14:55;;;;;;;;;;;;;;;24.27;50.79;102139.22;5161239;27;19915;-84
2021/08/29 12:17:21;;;;;;;;;;;;;;;24.39;50.69;102139.03;5161845;27;20379;-86
2021/08/29 12:19:50;;;;;;;;;;;;;;;24.77;49.94;102140.41;5143491;27;20375;-84
2021/08/29 12:22:15;;;;;;;;;;;;;;;24.23;51.10;102135.84;5142587;27;19921;-85
2021/08/29 12:24:41;;;;;;;;;;;;;;;25.31;48.22;102134.78;5147975;27;20356;-85
2021/08/29 12:27:08;;;;;;;;;;;;;;;25.07;48.84;102126.75;5122996;27;19923;-85
2021/08/29 12:29:47;;;;;;;;;;;;;;;24.83;48.63;102129.81;5123283;27;19950;-86
2021/08/29 12:32:13;;;;;;;;;;;;;;;24.67;49.53;102128.41;5124211;27;19920;-87